Overview Statistics Trail Chart Weather Telemetry Raw packets
 

This is the latest recevied weather packets stored in our database for station/object MeshWX-3. If no packets are shown the sender has not sent any weather packets the latest 10 day(s).

<< 1 2 3 4 5 >>
Time Temp. Humidity Pressure Rain* Wind** Luminosity Snow
1788552478 23.33° C 38% 977.3 hPa - - - -
1788550628 23.33° C 38% 977.3 hPa - - - -
1788550560 23.89° C 36% 977.2 hPa - - - -
1788548648 23.89° C 36% 977.2 hPa - - - -
1788548578 23.89° C 36% 977.1 hPa - - - -
1788548251 23.89° C 36% 977.1 hPa - - - -
1788546608 23.89° C 36% 977.1 hPa - - - -
1788546538 24.44° C 33% 976.8 hPa - - - -
1788544568 24.44° C 33% 976.8 hPa - - - -
1788544498 25.56° C 31% 976.4 hPa - - - -
1788542527 25.56° C 31% 976.4 hPa - - - -
1788542458 26.67° C 30% 976.3 hPa - - - -
1788540547 26.67° C 30% 976.3 hPa - - - -
1788540477 29.44° C 27% 976.1 hPa - - - -
1788538568 29.44° C 27% 976.1 hPa - - - -
1788538499 33.33° C 23% 975.9 hPa - - - -
1788536587 33.33° C 23% 975.9 hPa - - - -
1788536517 33.89° C 24% 976 hPa - - - -
1788534606 33.89° C 24% 976 hPa - - - -
1788534537 34.44° C 22% 976.1 hPa - - - -
1788532626 34.44° C 22% 976.1 hPa - - - -
1788532557 34.44° C 22% 975.6 hPa - - - -
1788530706 34.44° C 22% 975.6 hPa - - - -
1788530696 34.44° C 22% 976.2 hPa - - - -
1788528787 34.44° C 22% 976.2 hPa - - - -

* Rain since midnight (hover to see other rain measurements)
** Current wind speed in m/s (hover to see current wind gust speed)